Flight Number: AVA1016 Duration: 1:15
Departure: Frankfurt am Main (EDDF) at 00:30 Distance: 223.168 Nm
Arrival: Hamburg-Fuhlsbuttel (EDDH) at 01:45 Equipment: B1900D

Weather Information
Frankfurt / M-Flughafen, Germany (EDDF) 50-03N 008-36E 113M Aug 11, 2022 - 01:50 AM EDT / 2022.08.11 0550 UTC
Wind: from the NNE (030 degrees) at 9 MPH (8 KT):0
Visibility: greater than 7 mile(s):0 Temperature: 69 F (21 C) Dew Point: 46 F (8 C) Relative Humidity: 43% Pressure (altimeter): 30.18 in. Hg (1022 hPa)
ob: EDDF 110550Z 03008KT CAVOK 21/08 Q1022 NOSIG cycle: 6
Sunrise: 04:14 Sunset: 18:47 (UTC)

Hamburg-Fuhlsbuettel, Germany (EDDH) 53-38N 010-00E 15M Aug 11, 2022 - 01:50 AM EDT / 2022.08.11 0550 UTC
Wind: from the E (080 degrees) at 3 MPH (3 KT) (direction variable):0
Visibility: greater than 7 mile(s):0 Temperature: 64 F (18 C) Dew Point: 55 F (13 C) Relative Humidity: 72% Pressure (altimeter): 30.27 in. Hg (1025 hPa)
ob: EDDH 110550Z AUTO 08003KT 060V130 CAVOK 18/13 Q1025 NOSIG cycle: 6
Sunrise: 03:57 Sunset: 18:52 (UTC)

TAF:2022/08/11 06:27 TAF EDDH 110500Z 1106/1212 06006KT CAVOK TEMPO 1122/1205 VRB03KT

Previous Pireps for this route
Date Flightnr Aircraft Flight time Fuel used Landing rate On time
2018-01-16AVX9737B7370.5052860Charter
(pireps marked green are flown by you)

Route map